F22 weather

Perry Municipal Airport
Perry, Oklahoma, United States

Public forecast

Using degrees Fahrenheit for public forecast. Weather courtesy of forecast.io.

Closest aviation weather report (METAR) to Perry Municipal Airport

Closest report is Stillwater Regional Airport, 16.4 nm (30.3 km) SE. Retrieved 2019/10/18 16:53 UTC (21 minutes ago):

KSWO 181653Z 16013KT 10SM CLR 21/08 A2980 RMK AO2 SLP084 T02110078

Closest aviation forecast (TAF) to Perry Municipal Airport

Closest forecast is Ponca City Regional Airport, 22.5 nm (41.6 km) NNE. Retrieved 2019/10/18 12:42 UTC (5 hours ago):

TAF KPNC 181138Z 1812/1912 18016G23KT P6SM FEW250 FM190000 16014KT P6SM SCT070 BKN100 PROB30 1905/1911 5SM -TSRA BKN040CB